METAR AND TAF INFORMATION
METAR FOR YARG
ADDS - METARS form results

(0550 UTC 25 September 2018)
Data provider http://aviationweather.gov/metar/data/
 
METAR text: YARG 250500Z AUTO 12005KT 070V160 9999 // NCD 36/01 Q1011
Conditions at: YARG (ARGYLE AERO , AU) observed 0500 UTC 25 September 2018
Temperature: 36.0°C (97°F)
Dewpoint: 1.0°C (34°F) [RH = 11%]
Pressure (altimeter): 29.85 inches Hg (1011.0 mb)
Winds: from the ESE (120 degrees) at 6 MPH (5 knots; 2.6 m/s)
Visibility: 6 or more miles (10+ km)
Ceiling: at least 12,000 feet AGL
Clouds: sky clear below 12,000 feet AGL
Weather: no significant weather observed at this time

 AIRPORT MAP

 RUNWAY INFORMATION
Runway 01 Runway length 7546 ft Runway width 98 ft
Runway elevation 522 ft Runway displaced threshold 0 ft Runway heading 21
Runway 19 Runway length 7546 ft Runway width 98 ft
Runway elevation 505 ft Runway displaced threshold 0 ft Runway heading 201

 AIRPORT FREQUENCIES
Type CTAF Name CTAF Frequency 127.3 MHZ
Type FSS Name BRISBANE C Frequency 122.4 MHZ

 AIRPORT NEAR NAVIGATION AIDS
Type VOR-DME Name Argyle Frequency 113900 KHZ